createdAt,value
2017-12-10T00:00:04.695Z,15.83
2017-12-10T00:02:34.012Z,16.10
2017-12-10T00:05:03.180Z,14.07
2017-12-10T00:07:31.223Z,11.30
2017-12-10T00:09:59.636Z,11.27
2017-12-10T00:12:27.468Z,15.53
2017-12-10T00:14:55.163Z,16.40
2017-12-10T00:17:23.531Z,11.27
2017-12-10T00:19:51.608Z,12.00
2017-12-10T00:22:19.750Z,12.63
2017-12-10T00:24:48.167Z,11.00
2017-12-10T00:27:17.306Z,12.07
2017-12-10T00:29:45.738Z,10.33
2017-12-10T00:32:14.925Z,9.77
2017-12-10T00:34:42.991Z,9.87
2017-12-10T00:37:11.378Z,16.63
2017-12-10T00:39:39.751Z,8.47
2017-12-10T00:42:08.187Z,10.77
2017-12-10T00:44:35.892Z,9.07
2017-12-10T00:47:04.379Z,10.90
2017-12-10T00:49:32.906Z,9.63
2017-12-10T00:52:00.626Z,10.47
2017-12-10T00:54:29.123Z,11.57
2017-12-10T00:56:57.599Z,10.80
2017-12-10T00:59:26.093Z,11.90
2017-12-10T01:01:54.127Z,9.90
2017-12-10T01:04:22.161Z,9.33
2017-12-10T01:06:50.208Z,12.47
2017-12-10T01:09:17.983Z,9.40
2017-12-10T01:11:46.051Z,8.53
2017-12-10T01:14:14.132Z,8.20
2017-12-10T01:16:42.336Z,10.37
2017-12-10T01:19:10.363Z,9.87
2017-12-10T01:21:38.392Z,8.00
2017-12-10T01:24:06.103Z,9.10
2017-12-10T01:26:34.324Z,13.50
2017-12-10T01:29:02.519Z,9.87
2017-12-10T01:31:31.816Z,12.90
2017-12-10T01:34:00.637Z,16.50
2017-12-10T01:36:28.684Z,13.63
2017-12-10T01:38:56.568Z,8.43
2017-12-10T01:41:24.293Z,9.03
2017-12-10T01:43:52.764Z,10.27
2017-12-10T01:46:20.495Z,12.97
2017-12-10T01:48:48.195Z,12.30
2017-12-10T01:51:16.685Z,11.20
2017-12-10T01:53:45.163Z,9.03
2017-12-10T01:56:13.627Z,9.37
2017-12-10T01:58:41.335Z,9.70
2017-12-10T02:01:09.156Z,7.70
2017-12-10T02:03:37.195Z,10.43
2017-12-10T02:06:05.043Z,14.17
2017-12-10T02:08:32.746Z,9.80
2017-12-10T02:11:00.565Z,8.63
2017-12-10T02:13:28.279Z,11.17
2017-12-10T02:15:56.042Z,13.73
2017-12-10T02:18:23.810Z,9.27
2017-12-10T02:20:51.542Z,14.57
2017-12-10T02:23:19.275Z,8.07
2017-12-10T02:25:47.065Z,11.30
2017-12-10T02:28:14.756Z,9.10
2017-12-10T02:30:42.468Z,10.73
2017-12-10T02:33:10.177Z,9.80
2017-12-10T02:35:37.885Z,11.27
2017-12-10T02:38:05.570Z,9.70
2017-12-10T02:40:34.338Z,8.67
2017-12-10T02:43:02.089Z,7.37
2017-12-10T02:45:29.919Z,8.87
2017-12-10T02:47:57.602Z,9.30
2017-12-10T02:50:26.145Z,8.43
2017-12-10T02:52:53.854Z,8.27
2017-12-10T02:55:21.552Z,9.87
2017-12-10T02:57:49.254Z,8.80
2017-12-10T03:00:17.712Z,10.87
2017-12-10T03:02:45.421Z,12.10
2017-12-10T03:05:13.202Z,11.20
2017-12-10T03:07:41.003Z,9.67
2017-12-10T03:10:08.712Z,11.53
2017-12-10T03:12:36.476Z,8.30
2017-12-10T03:15:04.179Z,8.60
2017-12-10T03:17:31.934Z,8.00
2017-12-10T03:19:59.835Z,12.03
2017-12-10T03:22:27.544Z,8.30
2017-12-10T03:24:55.624Z,7.60
2017-12-10T03:27:23.552Z,8.57
2017-12-10T03:29:52.064Z,7.80
2017-12-10T03:32:19.763Z,13.63
2017-12-10T03:34:47.596Z,11.17
2017-12-10T03:37:15.306Z,7.27
2017-12-10T03:39:44.532Z,9.73
2017-12-10T03:42:12.226Z,8.37
2017-12-10T03:44:39.943Z,10.33
2017-12-10T03:47:08.412Z,13.30
2017-12-10T03:49:36.223Z,9.97
2017-12-10T03:52:03.917Z,12.20
2017-12-10T03:54:31.620Z,8.53
2017-12-10T03:56:59.649Z,10.67
2017-12-10T03:59:27.358Z,7.60
2017-12-10T04:01:55.712Z,8.53
2017-12-10T04:04:25.019Z,9.60
2017-12-10T04:06:53.490Z,7.43
2017-12-10T04:09:21.973Z,11.33
2017-12-10T04:11:50.771Z,9.43
2017-12-10T04:14:19.551Z,8.53
2017-12-10T04:16:48.031Z,9.03
2017-12-10T04:19:16.848Z,11.20
2017-12-10T04:21:44.544Z,8.77
2017-12-10T04:24:12.608Z,7.43
2017-12-10T04:26:41.179Z,7.40
2017-12-10T04:29:08.865Z,8.77
2017-12-10T04:31:36.703Z,15.90
2017-12-10T04:34:04.386Z,7.33
2017-12-10T04:36:32.489Z,7.90
2017-12-10T04:39:00.599Z,8.73
2017-12-10T04:41:28.430Z,7.03
2017-12-10T04:43:57.216Z,6.33
2017-12-10T04:46:25.736Z,6.60
2017-12-10T04:48:53.883Z,5.37
2017-12-10T04:51:22.343Z,5.83
2017-12-10T04:53:50.836Z,7.10
2017-12-10T04:56:19.962Z,6.20
2017-12-10T04:58:48.055Z,8.70
2017-12-10T05:01:16.205Z,10.20
2017-12-10T05:03:44.246Z,7.33
2017-12-10T05:06:11.981Z,5.63
2017-12-10T05:08:39.719Z,9.00
2017-12-10T05:11:08.072Z,5.80
2017-12-10T05:13:35.764Z,5.13
2017-12-10T05:16:03.461Z,7.83
2017-12-10T05:18:32.113Z,6.33
2017-12-10T05:21:00.149Z,6.50
2017-12-10T05:23:27.884Z,9.40
2017-12-10T05:25:56.381Z,7.70
2017-12-10T05:28:24.073Z,11.17
2017-12-10T05:30:52.092Z,6.60
2017-12-10T05:33:20.612Z,10.37
2017-12-10T05:35:48.794Z,8.30
2017-12-10T05:38:16.505Z,7.70
2017-12-10T05:40:45.294Z,10.10
2017-12-10T05:43:14.122Z,8.00
2017-12-10T05:45:42.141Z,5.67
2017-12-10T05:48:10.159Z,8.03
2017-12-10T05:50:37.857Z,7.27
2017-12-10T05:53:05.621Z,5.83
2017-12-10T05:55:33.804Z,8.03
2017-12-10T05:58:01.844Z,7.03
2017-12-10T06:00:29.671Z,10.13
2017-12-10T06:02:57.718Z,6.27
2017-12-10T06:05:26.504Z,9.97
2017-12-10T06:07:54.535Z,6.63
2017-12-10T06:10:22.693Z,7.80
2017-12-10T06:12:50.377Z,7.07
2017-12-10T06:15:18.176Z,4.87
2017-12-10T06:17:46.662Z,7.70
2017-12-10T06:20:14.575Z,7.57
2017-12-10T06:22:42.284Z,7.80
2017-12-10T06:25:10.763Z,5.13
2017-12-10T06:27:39.257Z,9.03
2017-12-10T06:30:07.150Z,8.20
2017-12-10T06:32:35.164Z,8.70
2017-12-10T06:35:03.192Z,5.67
2017-12-10T06:37:31.544Z,5.43
2017-12-10T06:39:59.996Z,7.97
2017-12-10T06:42:28.222Z,8.30
2017-12-10T06:44:55.919Z,8.50
2017-12-10T06:47:24.235Z,7.03
2017-12-10T06:49:52.733Z,6.10
2017-12-10T06:52:20.508Z,8.83
2017-12-10T06:54:48.203Z,6.70
2017-12-10T06:57:15.919Z,10.17
2017-12-10T06:59:43.624Z,7.50
2017-12-10T07:02:11.312Z,7.30
2017-12-10T07:04:40.434Z,7.30
2017-12-10T07:07:08.152Z,15.43
2017-12-10T07:09:37.711Z,8.30
2017-12-10T07:12:06.764Z,7.57
2017-12-10T07:14:36.419Z,9.97
2017-12-10T07:17:04.796Z,6.40
2017-12-10T07:19:32.830Z,6.67
2017-12-10T07:22:04.086Z,5.77
2017-12-10T07:24:32.202Z,11.77
2017-12-10T07:27:00.680Z,8.70
2017-12-10T07:29:28.383Z,11.63
2017-12-10T07:31:56.750Z,8.60
2017-12-10T07:34:24.810Z,11.73
2017-12-10T07:36:52.865Z,7.40
2017-12-10T07:39:20.559Z,8.60
2017-12-10T07:41:48.433Z,7.93
2017-12-10T07:44:17.101Z,6.80
2017-12-10T07:46:44.818Z,9.33
2017-12-10T07:49:12.841Z,11.20
2017-12-10T07:51:40.650Z,7.70
2017-12-10T07:54:08.342Z,7.70
2017-12-10T07:56:36.053Z,11.20
2017-12-10T07:59:04.221Z,7.60
2017-12-10T08:01:32.930Z,11.10
2017-12-10T08:04:00.695Z,7.67
2017-12-10T08:06:28.397Z,6.30
2017-12-10T08:08:56.288Z,10.00
2017-12-10T08:11:24.225Z,7.20
2017-12-10T08:13:52.109Z,6.47
2017-12-10T08:16:20.962Z,6.00
2017-12-10T08:18:48.808Z,10.10
2017-12-10T08:21:16.505Z,5.90
2017-12-10T08:23:44.217Z,10.73
2017-12-10T08:26:12.000Z,6.57
2017-12-10T08:28:40.085Z,6.80
2017-12-10T08:31:07.802Z,7.30
2017-12-10T08:33:36.883Z,7.77
2017-12-10T08:36:04.934Z,7.60
2017-12-10T08:38:32.683Z,6.10
2017-12-10T08:41:00.444Z,5.90
2017-12-10T08:43:28.145Z,7.10
2017-12-10T08:45:56.198Z,5.87
2017-12-10T08:48:24.560Z,5.10
2017-12-10T08:50:52.301Z,11.23
2017-12-10T08:53:20.321Z,6.87
2017-12-10T08:55:48.646Z,7.00
2017-12-10T08:58:16.324Z,5.80
2017-12-10T09:00:44.639Z,6.80
2017-12-10T09:03:12.344Z,5.97
2017-12-10T09:05:40.752Z,10.20
2017-12-10T09:08:08.618Z,7.13
2017-12-10T09:10:37.000Z,6.93
2017-12-10T09:13:04.784Z,9.17
2017-12-10T09:15:33.272Z,9.13
2017-12-10T09:18:01.802Z,8.60
2017-12-10T09:20:29.504Z,7.30
2017-12-10T09:22:58.376Z,11.40
2017-12-10T09:25:26.418Z,9.53
2017-12-10T09:27:54.587Z,10.33
2017-12-10T09:30:22.288Z,12.07
2017-12-10T09:32:49.992Z,8.00
2017-12-10T09:35:17.707Z,7.60
2017-12-10T09:37:46.241Z,11.17
2017-12-10T09:40:13.958Z,10.47
2017-12-10T09:42:41.691Z,15.50
2017-12-10T09:45:09.472Z,10.83
2017-12-10T09:47:37.186Z,11.10
2017-12-10T09:50:05.234Z,13.80
2017-12-10T09:52:34.036Z,9.80
2017-12-10T09:55:02.867Z,10.90
2017-12-10T09:57:30.886Z,11.03
2017-12-10T09:59:58.609Z,8.70
2017-12-10T10:02:26.779Z,10.60
2017-12-10T10:04:55.979Z,9.63
2017-12-10T10:07:23.698Z,14.00
2017-12-10T10:09:51.449Z,14.20
2017-12-10T10:12:19.921Z,10.47
2017-12-10T10:14:48.734Z,11.83
2017-12-10T10:17:16.771Z,12.57
2017-12-10T10:19:44.507Z,13.80
2017-12-10T10:22:12.202Z,11.80
2017-12-10T10:24:41.049Z,17.70
2017-12-10T10:27:08.801Z,11.50
2017-12-10T10:29:36.961Z,10.07
2017-12-10T10:32:04.833Z,9.67
2017-12-10T10:34:32.530Z,9.50
2017-12-10T10:37:00.598Z,11.53
2017-12-10T10:39:29.118Z,9.23
2017-12-10T10:41:57.948Z,8.63
2017-12-10T10:44:25.659Z,12.20
2017-12-10T10:46:54.164Z,9.33
2017-12-10T10:49:22.244Z,10.83
2017-12-10T10:51:50.328Z,7.63
2017-12-10T10:54:18.553Z,11.17
2017-12-10T10:56:47.108Z,10.67
2017-12-10T10:59:15.458Z,8.50
2017-12-10T11:01:44.130Z,10.80
2017-12-10T11:04:12.181Z,9.97
2017-12-10T11:06:39.936Z,10.60
2017-12-10T11:09:08.779Z,10.53
2017-12-10T11:11:36.795Z,10.73
2017-12-10T11:14:05.603Z,11.50
2017-12-10T11:16:33.376Z,10.10
2017-12-10T11:19:01.345Z,12.40
2017-12-10T11:21:29.075Z,8.00
2017-12-10T11:23:58.220Z,9.93
2017-12-10T11:26:26.742Z,12.40
2017-12-10T11:28:55.730Z,10.57
2017-12-10T11:31:24.379Z,13.00
2017-12-10T11:33:52.455Z,9.00
2017-12-10T11:36:20.175Z,9.20
2017-12-10T11:38:48.706Z,7.10
2017-12-10T11:41:16.623Z,7.33
2017-12-10T11:43:45.473Z,6.43
2017-12-10T11:46:13.605Z,8.73
2017-12-10T11:48:41.470Z,8.23
2017-12-10T11:51:09.219Z,7.43
2017-12-10T11:53:37.257Z,6.93
2017-12-10T11:56:06.211Z,5.90
2017-12-10T11:58:34.062Z,5.93
2017-12-10T12:01:03.088Z,5.77
2017-12-10T12:03:30.914Z,5.83
2017-12-10T12:05:58.656Z,8.73
2017-12-10T12:08:27.020Z,7.20
2017-12-10T12:10:56.250Z,7.83
2017-12-10T12:13:23.959Z,6.27
2017-12-10T12:15:52.027Z,9.73
2017-12-10T12:18:19.851Z,10.27
2017-12-10T12:20:47.560Z,7.67
2017-12-10T12:23:15.343Z,7.00
2017-12-10T12:25:43.140Z,6.23
2017-12-10T12:28:10.876Z,6.57
2017-12-10T12:30:39.413Z,5.60
2017-12-10T12:33:07.321Z,4.90
2017-12-10T12:35:35.850Z,5.53
2017-12-10T12:38:03.718Z,8.47
2017-12-10T12:40:31.818Z,4.93
2017-12-10T12:43:00.335Z,7.73
2017-12-10T12:45:28.093Z,4.27
2017-12-10T12:47:55.802Z,4.87
2017-12-10T12:50:23.850Z,4.93
2017-12-10T12:52:52.125Z,3.90
2017-12-10T12:55:20.077Z,3.67
2017-12-10T12:57:47.805Z,3.73
2017-12-10T13:00:15.567Z,3.50
2017-12-10T13:02:43.318Z,3.83
2017-12-10T13:05:11.397Z,3.90
2017-12-10T13:07:39.779Z,4.67
2017-12-10T13:10:07.548Z,3.53
2017-12-10T13:12:36.044Z,4.20
2017-12-10T13:15:04.429Z,2.93
2017-12-10T13:17:32.955Z,3.50
2017-12-10T13:20:00.654Z,3.57
2017-12-10T13:22:29.974Z,6.00
2017-12-10T13:24:58.486Z,3.90
2017-12-10T13:27:26.541Z,3.37
2017-12-10T13:29:54.251Z,3.67
2017-12-10T13:32:22.593Z,3.47
2017-12-10T13:34:50.403Z,4.10
2017-12-10T13:37:19.253Z,4.67
2017-12-10T13:39:47.421Z,3.57
2017-12-10T13:42:15.824Z,4.33
2017-12-10T13:44:44.049Z,3.90
2017-12-10T13:47:11.892Z,4.10
2017-12-10T13:49:40.788Z,4.20
2017-12-10T13:52:09.609Z,4.50
2017-12-10T13:54:37.254Z,4.47
2017-12-10T13:57:05.318Z,5.00
2017-12-10T13:59:33.040Z,5.00
2017-12-10T14:02:00.813Z,5.60
2017-12-10T14:04:29.340Z,5.30
2017-12-10T14:06:57.108Z,4.97
2017-12-10T14:09:24.846Z,6.17
2017-12-10T14:11:53.334Z,4.73
2017-12-10T14:14:22.209Z,5.40
2017-12-10T14:16:51.011Z,5.10
2017-12-10T14:19:18.702Z,5.30
2017-12-10T14:21:46.501Z,4.40
2017-12-10T14:24:14.209Z,4.13
2017-12-10T14:26:42.242Z,5.73
2017-12-10T14:29:10.808Z,5.13
2017-12-10T14:31:38.876Z,4.90
2017-12-10T14:34:06.746Z,5.07
2017-12-10T14:36:35.103Z,4.93
2017-12-10T14:39:02.960Z,5.80
2017-12-10T14:41:30.977Z,4.50
2017-12-10T14:43:59.459Z,3.93
2017-12-10T14:46:28.285Z,5.93
2017-12-10T14:48:56.472Z,4.73
2017-12-10T14:51:24.520Z,4.00
2017-12-10T14:53:52.585Z,7.20
2017-12-10T14:56:20.353Z,4.20
2017-12-10T14:58:48.415Z,4.63
2017-12-10T15:01:16.195Z,5.07
2017-12-10T15:03:43.922Z,4.37
2017-12-10T15:06:12.730Z,4.80
2017-12-10T15:08:43.475Z,6.80
2017-12-10T15:11:11.508Z,6.13
2017-12-10T15:13:39.992Z,5.47
2017-12-10T15:16:08.780Z,6.40
2017-12-10T15:18:37.452Z,8.33
2017-12-10T15:21:05.523Z,7.80
2017-12-10T15:23:33.644Z,9.73
2017-12-10T15:26:01.348Z,5.80
2017-12-10T15:28:29.055Z,7.33
2017-12-10T15:30:57.093Z,7.47
2017-12-10T15:33:24.972Z,7.50
2017-12-10T15:35:53.453Z,10.90
2017-12-10T15:38:22.405Z,8.13
2017-12-10T15:42:17.791Z,10.77
2017-12-10T15:44:45.513Z,15.43
2017-12-10T15:47:14.344Z,10.20
2017-12-10T15:49:42.726Z,9.10
2017-12-10T15:52:10.431Z,13.93
2017-12-10T15:54:38.121Z,7.33
2017-12-10T15:57:06.954Z,11.90
2017-12-10T15:59:34.642Z,9.73
2017-12-10T16:02:02.398Z,16.10
2017-12-10T16:04:30.090Z,16.07
2017-12-10T16:06:58.570Z,10.03
2017-12-10T16:09:27.045Z,11.27
2017-12-10T16:11:55.501Z,15.23
2017-12-10T16:14:23.390Z,16.57
2017-12-10T16:16:51.671Z,18.80
2017-12-10T16:19:20.553Z,30.07
2017-12-10T16:21:49.038Z,21.97
2017-12-10T16:24:18.194Z,25.43
2017-12-10T16:26:45.924Z,22.50
2017-12-10T16:29:13.639Z,25.03
2017-12-10T16:31:41.316Z,22.70
2017-12-10T16:34:09.828Z,20.30
2017-12-10T16:36:38.209Z,17.87
2017-12-10T16:39:06.899Z,25.27
2017-12-10T16:41:35.302Z,27.03
2017-12-10T16:44:02.988Z,32.90
2017-12-10T16:46:30.698Z,16.27
2017-12-10T16:48:58.725Z,24.13
2017-12-10T16:51:28.358Z,20.63
2017-12-10T16:53:56.085Z,20.20
2017-12-10T16:56:23.785Z,26.50
2017-12-10T16:58:51.935Z,23.97
2017-12-10T17:01:20.423Z,16.50
2017-12-10T17:03:48.905Z,21.10
2017-12-10T17:06:17.377Z,17.83
2017-12-10T17:08:45.109Z,18.67
2017-12-10T17:11:13.138Z,20.63
2017-12-10T17:13:40.897Z,18.10
2017-12-10T17:16:08.575Z,24.03
2017-12-10T17:18:36.492Z,29.70
2017-12-10T17:21:04.510Z,14.60
2017-12-10T17:23:32.594Z,23.83
2017-12-10T17:26:00.294Z,28.83
2017-12-10T17:28:28.345Z,26.10
2017-12-10T17:30:56.383Z,23.33
2017-12-10T17:33:24.441Z,17.13
2017-12-10T17:35:52.806Z,20.30
2017-12-10T17:38:20.520Z,22.70
2017-12-10T17:40:48.389Z,23.43
2017-12-10T17:43:16.565Z,21.03
2017-12-10T17:45:44.600Z,15.67
2017-12-10T17:48:12.613Z,21.23
2017-12-10T17:50:41.828Z,22.27
2017-12-10T17:53:10.986Z,22.13
2017-12-10T17:55:38.850Z,15.97
2017-12-10T17:58:07.024Z,29.13
2017-12-10T18:00:34.736Z,26.30
2017-12-10T18:03:02.508Z,21.93
2017-12-10T18:05:30.872Z,24.30
2017-12-10T18:08:00.069Z,18.53
2017-12-10T18:10:28.682Z,14.03
2017-12-10T18:12:56.627Z,26.07
2017-12-10T18:15:24.468Z,15.60
2017-12-10T18:17:52.582Z,14.30
2017-12-10T18:20:20.710Z,25.83
2017-12-10T18:22:48.880Z,17.57
2017-12-10T18:25:16.904Z,24.07
2017-12-10T18:27:44.625Z,13.67
2017-12-10T18:30:13.723Z,20.30
2017-12-10T18:32:42.571Z,14.13
2017-12-10T18:35:10.474Z,20.13
2017-12-10T18:37:39.099Z,13.27
2017-12-10T18:40:06.807Z,19.37
2017-12-10T18:42:34.516Z,22.17
2017-12-10T18:45:02.210Z,11.73
2017-12-10T18:47:30.263Z,18.43
2017-12-10T18:49:58.023Z,16.27
2017-12-10T18:52:26.608Z,15.80
2017-12-10T18:54:54.354Z,13.00
2017-12-10T18:57:22.173Z,16.50
2017-12-10T18:59:49.905Z,13.30
2017-12-10T19:02:17.593Z,15.73
2017-12-10T19:04:45.325Z,15.37
2017-12-10T19:07:12.994Z,16.70
2017-12-10T19:09:41.043Z,13.60
2017-12-10T19:12:09.088Z,15.30
2017-12-10T19:14:36.876Z,12.30
2017-12-10T19:17:04.901Z,13.23
2017-12-10T19:19:33.399Z,11.23
2017-12-10T19:22:01.886Z,19.93
2017-12-10T19:24:30.112Z,16.83
2017-12-10T19:26:58.169Z,15.67
2017-12-10T19:29:26.020Z,11.97
2017-12-10T19:31:53.985Z,16.63
2017-12-10T19:34:21.675Z,12.30
2017-12-10T19:36:49.380Z,17.90
2017-12-10T19:39:18.050Z,23.00
2017-12-10T19:41:46.538Z,25.97
2017-12-10T19:44:15.019Z,18.33
2017-12-10T19:46:43.675Z,12.00
2017-12-10T19:49:11.604Z,12.27
2017-12-10T19:51:39.323Z,15.60
2017-12-10T19:54:09.492Z,13.77
2017-12-10T19:56:37.331Z,14.57
2017-12-10T19:59:05.077Z,18.87
2017-12-10T20:01:33.572Z,16.10
2017-12-10T20:04:01.281Z,21.37
2017-12-10T20:06:29.320Z,17.33
2017-12-10T20:08:57.149Z,12.70
2017-12-10T20:11:25.618Z,13.27
2017-12-10T20:13:53.324Z,7.87
2017-12-10T20:16:21.026Z,10.80
2017-12-10T20:18:49.115Z,15.53
2017-12-10T20:21:17.313Z,15.63
2017-12-10T20:23:46.087Z,18.53
2017-12-10T20:26:14.919Z,11.90
2017-12-10T20:28:43.016Z,12.10
2017-12-10T20:31:10.774Z,5.80
2017-12-10T20:33:38.463Z,4.23
2017-12-10T20:36:06.222Z,3.40
2017-12-10T20:38:35.434Z,3.40
2017-12-10T20:41:03.887Z,3.30
2017-12-10T20:43:31.579Z,5.23
2017-12-10T20:46:00.058Z,4.70
2017-12-10T20:48:28.534Z,3.30
2017-12-10T20:50:57.365Z,6.00
2017-12-10T20:53:25.088Z,7.13
2017-12-10T20:55:53.896Z,4.13
2017-12-10T20:58:21.952Z,5.17
2017-12-10T21:00:50.477Z,9.03
2017-12-10T21:03:18.155Z,2.17
2017-12-10T21:05:45.884Z,3.23
2017-12-10T21:08:14.293Z,2.40
2017-12-10T21:10:42.699Z,2.30
2017-12-10T21:13:10.752Z,2.47
2017-12-10T21:15:38.519Z,2.57
2017-12-10T21:18:06.554Z,2.40
2017-12-10T21:20:34.761Z,3.37
2017-12-10T21:23:03.154Z,2.87
2017-12-10T21:25:30.899Z,3.00
2017-12-10T21:27:58.630Z,2.90
2017-12-10T21:30:26.565Z,3.30
2017-12-10T21:32:55.025Z,3.13
2017-12-10T21:35:23.206Z,3.50
2017-12-10T21:37:52.209Z,3.47
2017-12-10T21:40:21.034Z,4.00
2017-12-10T21:42:49.170Z,4.10
2017-12-10T21:45:18.323Z,4.53
2017-12-10T21:47:46.240Z,7.20
2017-12-10T21:50:14.735Z,5.03
2017-12-10T21:52:42.804Z,4.73
2017-12-10T21:55:10.681Z,5.27
2017-12-10T21:57:38.406Z,5.07
2017-12-10T22:00:07.394Z,5.70
2017-12-10T22:02:35.894Z,5.20
2017-12-10T22:05:05.054Z,6.33
2017-12-10T22:07:32.847Z,6.03
2017-12-10T22:10:01.763Z,5.63
2017-12-10T22:12:29.938Z,6.00
2017-12-10T22:14:57.992Z,7.07
2017-12-10T22:17:25.729Z,6.50
2017-12-10T22:19:54.278Z,7.57
2017-12-10T22:22:21.984Z,6.90
2017-12-10T22:24:50.800Z,6.43
2017-12-10T22:27:18.844Z,7.07
2017-12-10T22:29:48.020Z,7.30
2017-12-10T22:32:15.737Z,7.87
2017-12-10T22:34:44.172Z,6.90
2017-12-10T22:37:12.993Z,6.50
2017-12-10T22:39:41.026Z,7.77
2017-12-10T22:42:09.857Z,7.30
2017-12-10T22:44:38.224Z,7.23
2017-12-10T22:47:06.631Z,7.67
2017-12-10T22:49:35.059Z,8.03
2017-12-10T22:52:04.206Z,7.50
2017-12-10T22:54:32.742Z,9.07
2017-12-10T22:57:01.116Z,7.30
2017-12-10T22:59:30.289Z,7.63
2017-12-10T23:01:59.453Z,8.00
2017-12-10T23:04:27.851Z,9.20
2017-12-10T23:06:56.216Z,8.70
2017-12-10T23:09:24.620Z,9.53
2017-12-10T23:11:53.759Z,9.90
2017-12-10T23:14:21.531Z,10.10
2017-12-10T23:16:49.547Z,9.63
2017-12-10T23:19:18.000Z,10.70
2017-12-10T23:21:46.373Z,8.87
2017-12-10T23:24:14.896Z,10.70
2017-12-10T23:26:43.263Z,10.27
2017-12-10T23:29:11.639Z,10.00
2017-12-10T23:31:40.030Z,10.37
2017-12-10T23:34:08.826Z,10.30
2017-12-10T23:36:37.306Z,10.77
2017-12-10T23:39:06.564Z,10.20
2017-12-10T23:41:34.956Z,11.17
2017-12-10T23:44:02.821Z,11.23
2017-12-10T23:46:30.893Z,10.20
2017-12-10T23:48:59.252Z,10.43
2017-12-10T23:51:27.600Z,10.50
2017-12-10T23:53:56.457Z,10.97
2017-12-10T23:56:25.625Z,13.73
2017-12-10T23:58:53.999Z,12.67
